createdAt,value
2018-08-31T00:00:58.317Z,1017.75
2018-08-31T00:02:07.491Z,1017.76
2018-08-31T00:03:16.917Z,1017.74
2018-08-31T00:04:26.341Z,1017.76
2018-08-31T00:05:35.519Z,1017.8
2018-08-31T00:06:44.975Z,1017.8
2018-08-31T00:07:54.160Z,1017.79
2018-08-31T00:09:03.842Z,1017.77
2018-08-31T00:10:13.028Z,1017.73
2018-08-31T00:11:22.739Z,1017.74
2018-08-31T00:12:31.963Z,1017.72
2018-08-31T00:13:41.436Z,1017.74
2018-08-31T00:14:50.371Z,1017.75
2018-08-31T00:15:59.811Z,1017.71
2018-08-31T00:17:08.738Z,1017.71
2018-08-31T00:18:18.450Z,1017.72
2018-08-31T00:19:27.361Z,1017.71
2018-08-31T00:20:36.826Z,1017.67
2018-08-31T00:21:46.049Z,1017.68
2018-08-31T00:22:55.480Z,1017.62
2018-08-31T00:24:05.209Z,1017.64
2018-08-31T00:25:14.919Z,1017.63
2018-08-31T00:26:24.618Z,1017.62
2018-08-31T00:27:34.053Z,1017.61
2018-08-31T00:28:43.781Z,1017.56
2018-08-31T00:29:53.217Z,1017.62
2018-08-31T00:31:02.409Z,1017.57
2018-08-31T00:32:11.581Z,1017.6
2018-08-31T00:33:20.507Z,1017.56
2018-08-31T00:34:29.674Z,1017.53
2018-08-31T00:35:38.848Z,1017.54
2018-08-31T00:36:48.340Z,1017.55
2018-08-31T00:37:57.519Z,1017.51
2018-08-31T00:39:06.952Z,1017.49
2018-08-31T00:40:16.663Z,1017.5
2018-08-31T00:41:26.089Z,1017.51
2018-08-31T00:42:35.268Z,1017.51
2018-08-31T00:43:44.459Z,1017.5
2018-08-31T00:44:53.366Z,1017.5
2018-08-31T00:46:02.547Z,1017.52
2018-08-31T00:47:12.486Z,1017.49
2018-08-31T00:48:21.679Z,1017.49
2018-08-31T00:49:31.369Z,1017.49
2018-08-31T00:50:40.849Z,1017.48
2018-08-31T00:51:50.020Z,1017.45
2018-08-31T00:52:59.441Z,1017.45
2018-08-31T00:54:09.383Z,1017.44
2018-08-31T00:55:18.050Z,1017.43
2018-08-31T00:56:27.519Z,1017.46
2018-08-31T00:57:37.379Z,1017.48
2018-08-31T00:58:46.299Z,1017.46
2018-08-31T00:59:55.479Z,1017.49
2018-08-31T01:01:05.160Z,1017.49
2018-08-31T01:02:14.872Z,1017.45
2018-08-31T01:03:24.310Z,1017.48
2018-08-31T01:04:33.237Z,1017.4
2018-08-31T01:05:42.408Z,1017.37
2018-08-31T01:06:51.597Z,1017.37
2018-08-31T01:08:01.545Z,1017.34
2018-08-31T01:09:11.003Z,1017.34
2018-08-31T01:10:20.188Z,1017.36
2018-08-31T01:11:29.639Z,1017.37
2018-08-31T01:12:39.086Z,1017.4
2018-08-31T01:13:48.781Z,1017.42
2018-08-31T01:14:58.753Z,1017.38
2018-08-31T01:16:08.697Z,1017.36
2018-08-31T01:17:17.631Z,1017.33
2018-08-31T01:18:27.332Z,1017.3
2018-08-31T01:19:37.052Z,1017.33
2018-08-31T01:20:46.506Z,1017.34
2018-08-31T01:21:55.679Z,1017.32
2018-08-31T01:23:05.133Z,1017.34
2018-08-31T01:24:14.865Z,1017.35
2018-08-31T01:25:24.089Z,1017.37
2018-08-31T01:26:33.881Z,1017.36
2018-08-31T01:27:43.099Z,1017.34
2018-08-31T01:28:52.283Z,1017.33
2018-08-31T01:30:01.541Z,1017.36
2018-08-31T01:31:10.973Z,1017.37
2018-08-31T01:32:20.427Z,1017.34
2018-08-31T01:33:29.583Z,1017.41
2018-08-31T01:34:39.322Z,1017.4
2018-08-31T01:35:48.742Z,1017.38
2018-08-31T01:36:58.176Z,1017.38
2018-08-31T01:38:07.874Z,1017.4
2018-08-31T01:39:17.296Z,1017.43
2018-08-31T01:40:26.989Z,1017.39
2018-08-31T01:41:35.906Z,1017.4
2018-08-31T01:42:45.335Z,1017.42
2018-08-31T01:43:54.277Z,1017.4
2018-08-31T01:45:03.200Z,1017.43
2018-08-31T01:46:12.618Z,1017.43
2018-08-31T01:47:22.047Z,1017.4
2018-08-31T01:48:31.487Z,1017.42
2018-08-31T01:49:40.675Z,1017.39
2018-08-31T01:50:50.099Z,1017.35
2018-08-31T01:51:59.266Z,1017.36
2018-08-31T01:53:08.698Z,1017.36
2018-08-31T01:54:17.885Z,1017.38
2018-08-31T01:55:27.064Z,1017.43
2018-08-31T01:56:36.800Z,1017.38
2018-08-31T01:57:46.483Z,1017.43
2018-08-31T01:58:55.957Z,1017.42
2018-08-31T02:00:05.654Z,1017.42
2018-08-31T02:01:14.832Z,1017.46
2018-08-31T02:02:24.764Z,1017.41
2018-08-31T02:03:34.451Z,1017.41
2018-08-31T02:04:43.881Z,1017.39
2018-08-31T02:05:53.600Z,1017.36
2018-08-31T02:07:03.283Z,1017.41
2018-08-31T02:08:12.970Z,1017.38
2018-08-31T02:09:22.390Z,1017.39
2018-08-31T02:10:31.291Z,1017.4
2018-08-31T02:11:40.473Z,1017.38
2018-08-31T02:12:49.894Z,1017.4
2018-08-31T02:13:59.055Z,1017.4
2018-08-31T02:15:08.518Z,1017.41
2018-08-31T02:16:17.443Z,1017.45
2018-08-31T02:17:26.880Z,1017.4
2018-08-31T02:18:36.316Z,1017.43
2018-08-31T02:19:45.546Z,1017.39
2018-08-31T02:20:55.486Z,1017.43
2018-08-31T02:22:04.648Z,1017.4
2018-08-31T02:23:13.825Z,1017.39
2018-08-31T02:24:23.279Z,1017.39
2018-08-31T02:25:32.438Z,1017.44
2018-08-31T02:26:41.354Z,1017.45
2018-08-31T02:27:50.276Z,1017.39
2018-08-31T02:29:00.004Z,1017.41
2018-08-31T02:30:09.718Z,1017.4
2018-08-31T02:31:19.193Z,1017.41
2018-08-31T02:32:28.624Z,1017.41
2018-08-31T02:33:37.559Z,1017.47
2018-08-31T02:34:46.746Z,1017.45
2018-08-31T02:35:55.689Z,1017.46
2018-08-31T02:37:05.380Z,1017.44
2018-08-31T02:38:15.323Z,1017.42
2018-08-31T02:39:24.896Z,1017.42
2018-08-31T02:40:34.097Z,1017.43
2018-08-31T02:41:43.897Z,1017.38
2018-08-31T02:42:53.037Z,1017.38
2018-08-31T02:44:03.020Z,1017.39
2018-08-31T02:45:12.710Z,1017.36
2018-08-31T02:46:22.404Z,1017.35
2018-08-31T02:47:32.104Z,1017.34
2018-08-31T02:48:41.012Z,1017.37
2018-08-31T02:49:50.689Z,1017.39
2018-08-31T02:51:00.104Z,1017.35
2018-08-31T02:52:09.790Z,1017.35
2018-08-31T02:53:18.968Z,1017.33
2018-08-31T02:54:28.646Z,1017.34
2018-08-31T02:55:38.328Z,1017.33
2018-08-31T02:56:47.540Z,1017.32
2018-08-31T02:57:56.703Z,1017.36
2018-08-31T02:59:06.125Z,1017.3
2018-08-31T03:00:15.314Z,1017.33
2018-08-31T03:01:24.767Z,1017.31
2018-08-31T03:02:34.265Z,1017.3
2018-08-31T03:03:43.757Z,1017.35
2018-08-31T03:04:53.185Z,1017.29
2018-08-31T03:06:02.665Z,1017.29
2018-08-31T03:07:12.384Z,1017.34
2018-08-31T03:08:21.586Z,1017.32
2018-08-31T03:09:31.294Z,1017.29
2018-08-31T03:10:40.237Z,1017.3
2018-08-31T03:11:49.410Z,1017.28
2018-08-31T03:12:58.339Z,1017.31
2018-08-31T03:14:07.521Z,1017.29
2018-08-31T03:15:17.210Z,1017.3
2018-08-31T03:16:26.906Z,1017.3
2018-08-31T03:17:36.381Z,1017.3
2018-08-31T03:18:45.830Z,1017.28
2018-08-31T03:19:55.268Z,1017.29
2018-08-31T03:21:04.713Z,1017.3
2018-08-31T03:22:14.888Z,1017.32
2018-08-31T03:23:24.319Z,1017.3
2018-08-31T03:24:33.519Z,1017.32
2018-08-31T03:25:42.960Z,1017.33
2018-08-31T03:26:52.685Z,1017.33
2018-08-31T03:28:01.874Z,1017.28
2018-08-31T03:29:11.032Z,1017.28
2018-08-31T03:30:20.755Z,1017.27
2018-08-31T03:31:30.443Z,1017.25
2018-08-31T03:32:40.396Z,1017.27
2018-08-31T03:33:50.079Z,1017.25
2018-08-31T03:34:59.266Z,1017.23
2018-08-31T03:36:08.459Z,1017.23
2018-08-31T03:37:17.891Z,1017.25
2018-08-31T03:38:26.850Z,1017.24
2018-08-31T03:39:36.275Z,1017.25
2018-08-31T03:40:45.467Z,1017.26
2018-08-31T03:41:55.138Z,1017.24
2018-08-31T03:43:05.078Z,1017.27
2018-08-31T03:44:14.514Z,1017.28
2018-08-31T03:45:23.685Z,1017.29
2018-08-31T03:46:33.137Z,1017.31
2018-08-31T03:47:42.813Z,1017.31
2018-08-31T03:48:52.258Z,1017.29
2018-08-31T03:50:01.434Z,1017.34
2018-08-31T03:51:10.887Z,1017.31
2018-08-31T03:52:20.357Z,1017.36
2018-08-31T03:53:29.533Z,1017.36
2018-08-31T03:54:39.306Z,1017.38
2018-08-31T03:55:49.248Z,1017.37
2018-08-31T03:56:58.674Z,1017.35
2018-08-31T03:58:08.404Z,1017.36
2018-08-31T03:59:17.859Z,1017.37
2018-08-31T04:00:27.278Z,1017.33
2018-08-31T04:01:37.053Z,1017.38
2018-08-31T04:02:46.791Z,1017.35
2018-08-31T04:03:55.498Z,1017.35
2018-08-31T04:05:04.950Z,1017.37
2018-08-31T04:06:14.926Z,1017.39
2018-08-31T04:07:24.612Z,1017.36
2018-08-31T04:08:34.057Z,1017.36
2018-08-31T04:09:43.496Z,1017.35
2018-08-31T04:10:53.000Z,1017.32
2018-08-31T04:12:02.184Z,1017.31
2018-08-31T04:13:11.093Z,1017.33
2018-08-31T04:14:20.524Z,1017.35
2018-08-31T04:15:29.694Z,1017.32
2018-08-31T04:16:39.123Z,1017.33
2018-08-31T04:17:48.040Z,1017.33
2018-08-31T04:18:57.465Z,1017.29
2018-08-31T04:20:06.925Z,1017.33
2018-08-31T04:21:16.091Z,1017.35
2018-08-31T04:22:25.530Z,1017.36
2018-08-31T04:23:34.503Z,1017.34
2018-08-31T04:24:43.921Z,1017.36
2018-08-31T04:25:53.387Z,1017.34
2018-08-31T04:27:02.559Z,1017.35
2018-08-31T04:28:11.985Z,1017.37
2018-08-31T04:29:21.234Z,1017.33
2018-08-31T04:30:30.411Z,1017.32
2018-08-31T04:31:40.097Z,1017.31
2018-08-31T04:32:49.516Z,1017.3
2018-08-31T04:33:59.269Z,1017.36
2018-08-31T04:35:08.612Z,1017.31
2018-08-31T04:36:17.775Z,1017.34
2018-08-31T04:37:27.205Z,1017.38
2018-08-31T04:38:36.123Z,1017.35
2018-08-31T04:39:45.817Z,1017.35
2018-08-31T04:40:55.004Z,1017.36
2018-08-31T04:42:04.504Z,1017.32
2018-08-31T04:43:13.424Z,1017.32
2018-08-31T04:44:22.849Z,1017.34
2018-08-31T04:45:32.523Z,1017.37
2018-08-31T04:46:42.202Z,1017.35
2018-08-31T04:47:51.664Z,1017.35
2018-08-31T04:49:01.095Z,1017.36
2018-08-31T04:50:10.326Z,1017.34
2018-08-31T04:51:19.841Z,1017.34
2018-08-31T04:52:28.761Z,1017.34
2018-08-31T04:53:38.708Z,1017.38
2018-08-31T04:54:48.672Z,1017.37
2018-08-31T04:55:57.606Z,1017.39
2018-08-31T04:57:07.315Z,1017.42
2018-08-31T04:58:16.784Z,1017.44
2018-08-31T04:59:25.966Z,1017.38
2018-08-31T05:00:35.129Z,1017.36
2018-08-31T05:01:44.819Z,1017.41
2018-08-31T05:02:54.024Z,1017.41
2018-08-31T05:04:03.455Z,1017.41
2018-08-31T05:05:12.126Z,1017.39
2018-08-31T05:06:21.605Z,1017.37
2018-08-31T05:07:30.770Z,1017.38
2018-08-31T05:08:39.937Z,1017.41
2018-08-31T05:09:49.606Z,1017.42
2018-08-31T05:10:58.579Z,1017.42
2018-08-31T05:12:08.276Z,1017.42
2018-08-31T05:13:17.456Z,1017.43
2018-08-31T05:14:26.901Z,1017.46
2018-08-31T05:15:36.621Z,1017.48
2018-08-31T05:16:46.058Z,1017.45
2018-08-31T05:17:55.763Z,1017.46
2018-08-31T05:19:05.221Z,1017.48
2018-08-31T05:20:15.156Z,1017.46
2018-08-31T05:21:24.574Z,1017.47
2018-08-31T05:22:34.013Z,1017.52
2018-08-31T05:23:44.584Z,1017.51
2018-08-31T05:24:54.007Z,1017.5
2018-08-31T05:26:03.692Z,1017.49
2018-08-31T05:27:13.117Z,1017.55
2018-08-31T05:28:22.800Z,1017.5
2018-08-31T05:29:32.786Z,1017.54
2018-08-31T05:30:42.216Z,1017.52
2018-08-31T05:31:51.137Z,1017.5
2018-08-31T05:33:00.562Z,1017.5
2018-08-31T05:34:10.019Z,1017.54
2018-08-31T05:35:19.704Z,1017.51
2018-08-31T05:36:29.126Z,1017.5
2018-08-31T05:37:38.589Z,1017.55
2018-08-31T05:38:48.042Z,1017.57
2018-08-31T05:39:57.477Z,1017.55
2018-08-31T05:41:06.918Z,1017.56
2018-08-31T05:42:16.114Z,1017.6
2018-08-31T05:43:25.351Z,1017.57
2018-08-31T05:44:35.042Z,1017.61
2018-08-31T05:45:44.210Z,1017.64
2018-08-31T05:46:53.640Z,1017.68
2018-08-31T05:48:03.070Z,1017.67
2018-08-31T05:49:12.499Z,1017.69
2018-08-31T05:50:21.674Z,1017.69
2018-08-31T05:51:31.641Z,1017.7
2018-08-31T05:52:41.338Z,1017.73
2018-08-31T05:53:51.014Z,1017.72
2018-08-31T05:54:59.926Z,1017.71
2018-08-31T05:56:09.365Z,1017.72
2018-08-31T05:57:19.305Z,1017.75
2018-08-31T05:58:28.726Z,1017.75
2018-08-31T05:59:38.582Z,1017.74
2018-08-31T06:00:47.759Z,1017.77
2018-08-31T06:01:57.187Z,1017.74
2018-08-31T06:03:07.083Z,1017.77
2018-08-31T06:04:16.825Z,1017.77
2018-08-31T06:05:25.749Z,1017.81
2018-08-31T06:06:34.926Z,1017.8
2018-08-31T06:07:44.350Z,1017.87
2018-08-31T06:08:53.277Z,1017.8
2018-08-31T06:10:02.955Z,1017.82
2018-08-31T06:11:12.392Z,1017.85
2018-08-31T06:12:21.308Z,1017.83
2018-08-31T06:13:30.213Z,1017.89
2018-08-31T06:14:39.381Z,1017.86
2018-08-31T06:15:49.067Z,1017.86
2018-08-31T06:16:58.513Z,1017.88
2018-08-31T06:18:07.687Z,1017.87
2018-08-31T06:19:16.605Z,1017.91
2018-08-31T06:20:26.299Z,1017.86
2018-08-31T06:21:35.750Z,1017.91
2018-08-31T06:22:45.503Z,1017.95
2018-08-31T06:23:54.954Z,1017.92
2018-08-31T06:25:04.650Z,1017.92
2018-08-31T06:26:14.602Z,1017.9
2018-08-31T06:27:24.306Z,1017.95
2018-08-31T06:28:34.296Z,1018
2018-08-31T06:29:43.434Z,1018.03
2018-08-31T06:30:52.871Z,1018.03
2018-08-31T06:32:02.298Z,1018.03
2018-08-31T06:33:11.731Z,1018.02
2018-08-31T06:34:21.153Z,1018.04
2018-08-31T06:35:30.582Z,1018.03
2018-08-31T06:36:40.012Z,1018.04
2018-08-31T06:37:49.724Z,1018.08
2018-08-31T06:38:59.441Z,1018.06
2018-08-31T06:40:08.892Z,1018.06
2018-08-31T06:41:18.889Z,1018.09
2018-08-31T06:42:28.325Z,1018.09
2018-08-31T06:43:37.275Z,1018.09
2018-08-31T06:44:46.733Z,1018.07
2018-08-31T06:45:55.897Z,1018.07
2018-08-31T06:47:05.313Z,1018.13
2018-08-31T06:48:14.498Z,1018.14
2018-08-31T06:49:23.662Z,1018.11
2018-08-31T06:50:32.580Z,1018.13
2018-08-31T06:51:42.012Z,1018.17
2018-08-31T06:52:51.182Z,1018.17
2018-08-31T06:54:00.351Z,1018.14
2018-08-31T06:55:09.627Z,1018.13
2018-08-31T06:56:19.062Z,1018.15
2018-08-31T06:57:29.020Z,1018.14
2018-08-31T06:58:38.474Z,1018.13
2018-08-31T06:59:47.697Z,1018.16
2018-08-31T07:00:57.119Z,1018.17
2018-08-31T07:02:06.828Z,1018.17
2018-08-31T07:03:16.257Z,1018.19
2018-08-31T07:04:25.414Z,1018.13
2018-08-31T07:05:34.586Z,1018.13
2018-08-31T07:06:43.746Z,1018.16
2018-08-31T07:07:53.475Z,1018.16
2018-08-31T07:09:02.913Z,1018.14
2018-08-31T07:10:12.069Z,1018.18
2018-08-31T07:11:21.757Z,1018.17
2018-08-31T07:12:31.267Z,1018.18
2018-08-31T07:13:40.910Z,1018.16
2018-08-31T07:14:50.082Z,1018.18
2018-08-31T07:15:59.509Z,1018.16
2018-08-31T07:17:08.415Z,1018.22
2018-08-31T07:18:18.390Z,1018.23
2018-08-31T07:19:28.442Z,1018.24
2018-08-31T07:20:37.986Z,1018.24
2018-08-31T07:21:47.446Z,1018.23
2018-08-31T07:22:56.897Z,1018.25
2018-08-31T07:24:06.336Z,1018.26
2018-08-31T07:25:15.934Z,1018.27
2018-08-31T07:26:25.668Z,1018.27
2018-08-31T07:27:36.340Z,1018.28
2018-08-31T07:28:46.050Z,1018.29
2018-08-31T07:29:55.510Z,1018.27
2018-08-31T07:31:05.221Z,1018.28
2018-08-31T07:32:14.657Z,1018.28
2018-08-31T07:33:24.615Z,1018.25
2018-08-31T07:34:33.854Z,1018.26
2018-08-31T07:35:43.057Z,1018.29
2018-08-31T07:36:53.146Z,1018.32
2018-08-31T07:38:03.138Z,1018.29
2018-08-31T07:39:12.873Z,1018.3
2018-08-31T07:40:22.617Z,1018.31
2018-08-31T07:41:32.334Z,1018.32
2018-08-31T07:42:41.794Z,1018.31
2018-08-31T07:43:51.514Z,1018.29
2018-08-31T07:45:01.209Z,1018.3
2018-08-31T07:46:10.128Z,1018.29
2018-08-31T07:47:19.329Z,1018.32
2018-08-31T07:48:29.058Z,1018.34
2018-08-31T07:49:38.739Z,1018.31
2018-08-31T07:50:48.450Z,1018.35
2018-08-31T07:51:58.179Z,1018.36
2018-08-31T07:53:07.365Z,1018.35
2018-08-31T07:54:16.792Z,1018.34
2018-08-31T07:55:25.967Z,1018.36
2018-08-31T07:56:35.445Z,1018.42
2018-08-31T07:57:45.385Z,1018.39
2018-08-31T07:58:54.840Z,1018.42
2018-08-31T08:00:04.284Z,1018.43
2018-08-31T08:01:13.805Z,1018.45
2018-08-31T08:02:23.250Z,1018.44
2018-08-31T08:03:32.424Z,1018.45
2018-08-31T08:04:41.879Z,1018.48
2018-08-31T08:05:51.587Z,1018.48
2018-08-31T08:07:01.020Z,1018.52
2018-08-31T08:08:10.736Z,1018.48
2018-08-31T08:09:19.920Z,1018.49
2018-08-31T08:10:29.396Z,1018.52
2018-08-31T08:11:38.825Z,1018.52
2018-08-31T08:12:48.498Z,1018.52
2018-08-31T08:13:57.701Z,1018.49
2018-08-31T08:15:07.129Z,1018.54
2018-08-31T08:16:16.310Z,1018.5
2018-08-31T08:17:26.063Z,1018.53
2018-08-31T08:18:35.496Z,1018.55
2018-08-31T08:19:44.716Z,1018.52
2018-08-31T08:20:53.937Z,1018.53
2018-08-31T08:22:03.609Z,1018.5
2018-08-31T08:23:12.820Z,1018.52
2018-08-31T08:24:22.581Z,1018.51
2018-08-31T08:25:32.292Z,1018.51
2018-08-31T08:26:41.789Z,1018.53
2018-08-31T08:27:51.241Z,1018.52
2018-08-31T08:29:00.668Z,1018.57
2018-08-31T08:30:09.826Z,1018.54
2018-08-31T08:31:19.534Z,1018.55
2018-08-31T08:32:29.491Z,1018.53
2018-08-31T08:33:38.951Z,1018.54
2018-08-31T08:34:48.425Z,1018.55
2018-08-31T08:35:57.413Z,1018.58
2018-08-31T08:37:07.191Z,1018.61
2018-08-31T08:38:16.378Z,1018.62
2018-08-31T08:39:25.845Z,1018.63
2018-08-31T08:40:35.291Z,1018.55
2018-08-31T08:41:44.723Z,1018.57
2018-08-31T08:42:54.555Z,1018.55
2018-08-31T08:44:04.563Z,1018.56
2018-08-31T08:45:13.978Z,1018.51
2018-08-31T08:46:23.659Z,1018.5
2018-08-31T08:47:33.110Z,1018.53
2018-08-31T08:48:42.776Z,1018.53
2018-08-31T08:49:52.731Z,1018.52
2018-08-31T08:51:01.982Z,1018.53
2018-08-31T08:52:11.167Z,1018.49
2018-08-31T08:53:20.679Z,1018.51
2018-08-31T08:54:30.621Z,1018.54
2018-08-31T08:55:40.096Z,1018.51
2018-08-31T08:56:49.783Z,1018.53
2018-08-31T08:57:58.677Z,1018.52
2018-08-31T08:59:08.724Z,1018.52
2018-08-31T09:00:17.639Z,1018.52
2018-08-31T09:01:27.082Z,1018.49
2018-08-31T09:02:36.512Z,1018.51
2018-08-31T09:03:45.961Z,1018.51
2018-08-31T09:04:55.135Z,1018.49
2018-08-31T09:06:04.048Z,1018.48
2018-08-31T09:07:13.994Z,1018.5
2018-08-31T09:08:23.423Z,1018.45
2018-08-31T09:09:32.629Z,1018.45
2018-08-31T09:10:42.060Z,1018.45
2018-08-31T09:11:51.827Z,1018.45
2018-08-31T09:13:01.958Z,1018.46
2018-08-31T09:14:11.643Z,1018.44
2018-08-31T09:15:21.078Z,1018.45
2018-08-31T09:16:29.747Z,1018.43
2018-08-31T09:17:39.438Z,1018.43
2018-08-31T09:18:48.875Z,1018.47
2018-08-31T09:19:58.314Z,1018.44
2018-08-31T09:21:07.255Z,1018.43
2018-08-31T09:22:16.420Z,1018.41
2018-08-31T09:23:25.869Z,1018.42
2018-08-31T09:24:34.860Z,1018.43
2018-08-31T09:25:45.121Z,1018.44
2018-08-31T09:26:54.839Z,1018.41
2018-08-31T09:28:04.293Z,1018.41
2018-08-31T09:29:13.742Z,1018.39
2018-08-31T09:30:23.182Z,1018.43
2018-08-31T09:31:33.149Z,1018.36
2018-08-31T09:32:42.677Z,1018.41
2018-08-31T09:33:52.535Z,1018.41
2018-08-31T09:35:01.444Z,1018.41
2018-08-31T09:36:10.880Z,1018.4
2018-08-31T09:37:20.633Z,1018.42
2018-08-31T09:38:30.379Z,1018.39
2018-08-31T09:39:39.823Z,1018.39
2018-08-31T09:40:49.566Z,1018.42
2018-08-31T09:41:58.999Z,1018.39
2018-08-31T09:43:08.201Z,1018.35
2018-08-31T09:44:17.637Z,1018.39
2018-08-31T09:45:27.334Z,1018.38
2018-08-31T09:46:37.062Z,1018.39
2018-08-31T09:47:46.774Z,1018.35
2018-08-31T09:48:55.954Z,1018.38
2018-08-31T09:50:05.937Z,1018.34
2018-08-31T09:51:15.365Z,1018.38
2018-08-31T09:52:24.554Z,1018.35
2018-08-31T09:53:33.757Z,1018.35
2018-08-31T09:54:42.932Z,1018.37
2018-08-31T09:55:52.126Z,1018.33
2018-08-31T09:57:01.812Z,1018.28
2018-08-31T09:58:10.720Z,1018.27
2018-08-31T09:59:19.908Z,1018.27
2018-08-31T10:00:29.108Z,1018.27
2018-08-31T10:01:38.554Z,1018.29
2018-08-31T10:02:47.729Z,1018.28
2018-08-31T10:03:57.490Z,1018.27
2018-08-31T10:05:06.657Z,1018.26
2018-08-31T10:06:16.100Z,1018.25
2018-08-31T10:07:26.099Z,1018.22
2018-08-31T10:08:35.555Z,1018.21
2018-08-31T10:09:44.737Z,1018.15
2018-08-31T10:10:54.005Z,1018.21
2018-08-31T10:12:03.658Z,1018.25
2018-08-31T10:13:13.190Z,1018.2
2018-08-31T10:14:22.706Z,1018.23
2018-08-31T10:15:31.897Z,1018.17
2018-08-31T10:16:41.583Z,1018.21
2018-08-31T10:17:50.847Z,1018.19
2018-08-31T10:19:00.787Z,1018.21
2018-08-31T10:20:10.536Z,1018.22
2018-08-31T10:21:19.704Z,1018.24
2018-08-31T10:22:29.122Z,1018.17
2018-08-31T10:23:38.051Z,1018.19
2018-08-31T10:24:47.246Z,1018.17
2018-08-31T10:25:56.968Z,1018.15
2018-08-31T10:27:06.163Z,1018.16
2018-08-31T10:28:15.353Z,1018.1
2018-08-31T10:29:24.269Z,1018.12
2018-08-31T10:30:33.974Z,1018.15
2018-08-31T10:31:43.491Z,1018.14
2018-08-31T10:32:52.964Z,1018.18
2018-08-31T10:34:02.154Z,1018.18
2018-08-31T10:35:11.325Z,1018.16
2018-08-31T10:36:20.244Z,1018.15
2018-08-31T10:37:29.918Z,1018.12
2018-08-31T10:38:39.202Z,1018.1
2018-08-31T10:39:48.370Z,1018.06
2018-08-31T10:40:57.525Z,1018.06
2018-08-31T10:42:06.713Z,1018.01
2018-08-31T10:43:16.400Z,1018.04
2018-08-31T10:44:25.555Z,1018.1
2018-08-31T10:45:34.247Z,1018.12
2018-08-31T10:46:43.702Z,1018.13
2018-08-31T10:47:53.404Z,1018.12
2018-08-31T10:49:02.843Z,1018.1
2018-08-31T10:50:12.001Z,1018.14
2018-08-31T10:51:21.434Z,1018.13
2018-08-31T10:52:30.861Z,1018.13
2018-08-31T10:53:39.854Z,1018.09
2018-08-31T10:54:48.536Z,1018.09
2018-08-31T10:55:58.227Z,1018.07
2018-08-31T10:57:07.923Z,1018.05
2018-08-31T10:58:17.163Z,1017.99
2018-08-31T10:59:26.317Z,1017.98
2018-08-31T11:00:36.019Z,1018.01
2018-08-31T11:01:45.498Z,1018.01
2018-08-31T11:02:55.186Z,1018.03
2018-08-31T11:04:04.952Z,1017.99
2018-08-31T11:05:14.876Z,1017.99
2018-08-31T11:06:24.051Z,1017.96
2018-08-31T11:07:33.224Z,1018.01
2018-08-31T11:08:42.673Z,1017.99
2018-08-31T11:09:52.619Z,1018
2018-08-31T11:11:01.792Z,1018.01
2018-08-31T11:12:11.499Z,1018.01
2018-08-31T11:13:20.171Z,1017.88
2018-08-31T11:14:29.364Z,1018.02
2018-08-31T11:15:39.103Z,1018.05
2018-08-31T11:16:48.539Z,1018.03
2018-08-31T11:17:58.009Z,1018.07
2018-08-31T11:19:07.457Z,1018.08
2018-08-31T11:20:16.626Z,1018
2018-08-31T11:21:25.853Z,1017.93
2018-08-31T11:22:35.570Z,1017.97
2018-08-31T11:23:44.740Z,1017.96
2018-08-31T11:24:53.655Z,1017.94
2018-08-31T11:26:03.410Z,1017.97
2018-08-31T11:27:13.111Z,1017.89
2018-08-31T11:28:23.119Z,1017.9
2018-08-31T11:29:32.839Z,1017.89
2018-08-31T11:30:42.007Z,1017.91
2018-08-31T11:31:51.438Z,1017.83
2018-08-31T11:33:00.885Z,1017.85
2018-08-31T11:34:10.321Z,1017.89
2018-08-31T11:35:20.029Z,1017.88
2018-08-31T11:36:29.502Z,1017.84
2018-08-31T11:37:39.502Z,1017.9
2018-08-31T11:38:48.688Z,1017.85
2018-08-31T11:39:57.613Z,1017.89
2018-08-31T11:41:07.314Z,1017.94
2018-08-31T11:42:17.016Z,1017.87
2018-08-31T11:43:26.488Z,1017.88
2018-08-31T11:44:36.658Z,1017.88
2018-08-31T11:45:46.122Z,1017.87
2018-08-31T11:46:55.820Z,1017.89
2018-08-31T11:48:05.016Z,1017.89
2018-08-31T11:49:14.712Z,1017.93
2018-08-31T11:50:23.639Z,1017.88
2018-08-31T11:51:33.316Z,1017.86
2018-08-31T11:52:43.018Z,1017.84
2018-08-31T11:53:52.738Z,1017.77
2018-08-31T11:55:02.427Z,1017.74
2018-08-31T11:56:12.551Z,1017.72
2018-08-31T11:57:21.977Z,1017.67
2018-08-31T11:58:31.171Z,1017.69
2018-08-31T11:59:40.864Z,1017.66
2018-08-31T12:00:50.578Z,1017.62
2018-08-31T12:02:00.456Z,1017.66
2018-08-31T12:03:10.288Z,1017.61
2018-08-31T12:04:19.711Z,1017.59
2018-08-31T12:05:28.629Z,1017.63
2018-08-31T12:06:38.059Z,1017.62
2018-08-31T12:07:47.499Z,1017.65
2018-08-31T12:08:58.090Z,1017.61
2018-08-31T12:10:07.528Z,1017.61
2018-08-31T12:11:16.948Z,1017.55
2018-08-31T12:12:26.629Z,1017.54
2018-08-31T12:13:36.323Z,1017.52
2018-08-31T12:14:46.286Z,1017.55
2018-08-31T12:15:55.510Z,1017.53
2018-08-31T12:17:04.935Z,1017.55
2018-08-31T12:18:14.111Z,1017.61
2018-08-31T12:19:23.049Z,1017.59
2018-08-31T12:20:32.913Z,1017.56
2018-08-31T12:21:41.832Z,1017.53
2018-08-31T12:22:51.537Z,1017.58
2018-08-31T12:24:00.981Z,1017.58
2018-08-31T12:25:10.415Z,1017.57
2018-08-31T12:26:19.331Z,1017.57
2018-08-31T12:27:28.499Z,1017.58
2018-08-31T12:28:37.659Z,1017.58
2018-08-31T12:29:47.098Z,1017.59
2018-08-31T12:30:56.537Z,1017.62
2018-08-31T12:32:05.479Z,1017.58
2018-08-31T12:33:14.907Z,1017.58
2018-08-31T12:34:24.086Z,1017.56
2018-08-31T12:35:33.269Z,1017.54
2018-08-31T12:36:42.203Z,1017.57
2018-08-31T12:37:51.716Z,1017.55
2018-08-31T12:39:01.152Z,1017.55
2018-08-31T12:40:10.077Z,1017.56
2018-08-31T12:41:19.515Z,1017.56
2018-08-31T12:42:28.674Z,1017.54
2018-08-31T12:43:38.390Z,1017.54
2018-08-31T12:44:48.691Z,1017.54
2018-08-31T12:45:58.120Z,1017.6
2018-08-31T12:47:07.866Z,1017.58
2018-08-31T12:48:17.291Z,1017.57
2018-08-31T12:49:26.448Z,1017.56
2018-08-31T12:50:35.719Z,1017.59
2018-08-31T12:51:44.641Z,1017.57
2018-08-31T12:52:54.093Z,1017.55
2018-08-31T12:54:03.523Z,1017.55
2018-08-31T12:55:12.955Z,1017.53
2018-08-31T12:56:22.644Z,1017.53
2018-08-31T12:57:32.602Z,1017.52
2018-08-31T12:58:41.764Z,1017.5
2018-08-31T12:59:51.445Z,1017.51
2018-08-31T13:01:01.233Z,1017.53
2018-08-31T13:02:10.926Z,1017.48
2018-08-31T13:03:20.387Z,1017.54
2018-08-31T13:04:30.069Z,1017.59
2018-08-31T13:05:39.756Z,1017.55
2018-08-31T13:06:49.464Z,1017.47
2018-08-31T13:07:59.153Z,1017.53
2018-08-31T13:09:08.868Z,1017.45
2018-08-31T13:10:18.326Z,1017.4
2018-08-31T13:11:27.823Z,1017.39
2018-08-31T13:12:37.277Z,1017.45
2018-08-31T13:13:46.722Z,1017.39
2018-08-31T13:14:55.908Z,1017.46
2018-08-31T13:16:05.090Z,1017.47
2018-08-31T13:17:14.259Z,1017.4
2018-08-31T13:18:23.695Z,1017.42
2018-08-31T13:19:33.373Z,1017.44
2018-08-31T13:20:43.088Z,1017.45
2018-08-31T13:21:52.531Z,1017.43
2018-08-31T13:23:01.968Z,1017.4
2018-08-31T13:24:11.160Z,1017.35
2018-08-31T13:25:20.766Z,1017.33
2018-08-31T13:26:30.467Z,1017.36
2018-08-31T13:27:39.897Z,1017.37
2018-08-31T13:28:49.365Z,1017.33
2018-08-31T13:29:58.552Z,1017.28
2018-08-31T13:31:07.781Z,1017.27
2018-08-31T13:32:18.447Z,1017.29
2018-08-31T13:33:28.148Z,1017.3
2018-08-31T13:34:37.620Z,1017.24
2018-08-31T13:35:47.145Z,1017.25
2018-08-31T13:36:56.850Z,1017.3
2018-08-31T13:38:06.127Z,1017.23
2018-08-31T13:39:15.672Z,1017.31
2018-08-31T13:40:25.101Z,1017.25
2018-08-31T13:41:35.061Z,1017.31
2018-08-31T13:42:43.973Z,1017.33
2018-08-31T13:43:52.903Z,1017.35
2018-08-31T13:45:02.455Z,1017.23
2018-08-31T13:46:12.406Z,1017.21
2018-08-31T13:47:21.857Z,1017.24
2018-08-31T13:48:31.278Z,1017.25
2018-08-31T13:49:40.442Z,1017.25
2018-08-31T13:50:49.876Z,1017.19
2018-08-31T13:51:59.550Z,1017.26
2018-08-31T13:53:08.993Z,1017.37
2018-08-31T13:54:18.441Z,1017.37
2018-08-31T13:55:27.884Z,1017.3
2018-08-31T13:56:37.312Z,1017.28
2018-08-31T13:57:46.512Z,1017.31
2018-08-31T13:58:55.692Z,1017.32
2018-08-31T14:00:05.166Z,1017.32
2018-08-31T14:01:14.849Z,1017.34
2018-08-31T14:02:24.539Z,1017.37